Harry B. Settoon — WDE5658 — position and weather

sailwx.info

Track history (hours):
 
Tides and Currents Weather Stations Pressure Air Temp Water Temp Dewpoint Dewpoint Depression Visibility Wind Speed Wind Dir Waves Ship Positions

Harry B. Settoon

Owner: Settoon Towing, LLC, Houma, LA. More information available from US FCC via Universal Licensing System and Coast Guard Vessel Documentation Center.

Last reported at 2017-Jun-28 17:30 UTC. Time now 2017-Jun-28 17:29 UTC.
Position N 29°34' W 090°43'.

Length 16 m.

Type: Tug. MMSI: 367369920.

Date/timePositionNaut miles runAvg speedWind from/ knotsBaromVisibWave heightAir tempDewpointWater temp
2017-Jun-28 17:30N 29°34' W 090°43'2 4.6
2017-Jun-28 17:00N 29°37' W 090°42'2 4.2
2017-Jun-28 16:30N 29°36' W 090°40'0 0.6
2017-Jun-28 16:00N 29°36' W 090°40'0 0.0
2017-Jun-28 15:30N 29°36' W 090°40'0 0.0
2017-Jun-28 15:00N 29°36' W 090°40'0 0.0
2017-Jun-28 14:00N 29°36' W 090°40'2 3.5
2017-Jun-28 13:30N 29°35' W 090°38'3 5.4
2017-Jun-28 13:00N 29°35' W 090°35'3 5.5
2017-Jun-28 12:30N 29°34' W 090°32'3 5.8
2017-Jun-28 12:00N 29°34' W 090°29'  
2017-Jun-23 13:39N 29°33' W 090°27'3 6.9
2017-Jun-23 13:09N 29°34' W 090°31'1 7.0
2017-Jun-23 13:00N 29°34' W 090°32'3 6.8
2017-Jun-23 12:30N 29°35' W 090°36'3 6.7
2017-Jun-23 12:00N 29°36' W 090°39'3 5.9
2017-Jun-23 11:30N 29°36' W 090°43'3 5.5
2017-Jun-23 11:00N 29°34' W 090°44'3 6.5
2017-Jun-23 10:30N 29°32' W 090°47'66 3.7
2017-Jun-22 16:45N 29°50' W 091°59'0 0.0
2017-Jun-22 14:58N 29°50' W 091°59'0 0.0
2017-Jun-22 14:28N 29°50' W 091°59'0 0.0
2017-Jun-22 13:12N 29°50' W 091°59'0 0.0
2017-Jun-22 12:58N 29°50' W 091°59'0 0.0
2017-Jun-22 12:27N 29°50' W 091°59'0 0.0
2017-Jun-22 11:52N 29°50' W 091°59'0 0.0
2017-Jun-22 11:30N 29°50' W 091°59'0 0.0
2017-Jun-22 10:54N 29°50' W 091°59'0 0.0
2017-Jun-22 10:26N 29°50' W 091°59'0 0.0
2017-Jun-22 10:00N 29°50' W 091°59'0 0.0
2017-Jun-22 09:30N 29°50' W 091°59'0 0.0
2017-Jun-22 09:00N 29°50' W 091°59'0 0.0
2017-Jun-22 08:30N 29°50' W 091°59'0 0.0
2017-Jun-22 07:50N 29°50' W 091°59'0 0.0
2017-Jun-22 07:30N 29°50' W 091°59'0 0.0
2017-Jun-22 07:00N 29°50' W 091°59'0 0.0
2017-Jun-22 06:27N 29°50' W 091°59'0 0.0
2017-Jun-22 05:50N 29°50' W 091°59'0 0.0
2017-Jun-22 05:27N 29°50' W 091°59'0 0.0
2017-Jun-22 04:57N 29°50' W 091°59'0 0.0
2017-Jun-21 23:25N 29°50' W 091°59'0 0.0
2017-Jun-21 22:31N 29°50' W 091°59'0 0.0
2017-Jun-21 22:29N 29°50' W 091°59'0 0.0
2017-Jun-21 22:00N 29°50' W 091°59'0 0.0
2017-Jun-21 21:30N 29°50' W 091°59'0 0.0
2017-Jun-21 20:59N 29°50' W 091°59'0 0.0
2017-Jun-21 20:30N 29°50' W 091°59'0 0.0
2017-Jun-21 20:00N 29°50' W 091°59'0 0.0
2017-Jun-21 19:25N 29°50' W 091°59'0 0.0
2017-Jun-21 18:55N 29°50' W 091°59'0 0.0
2017-Jun-21 18:30N 29°50' W 091°59'0 0.0
2017-Jun-21 18:00N 29°50' W 091°59'0 0.0
2017-Jun-21 17:30N 29°50' W 091°59'0 0.0
2017-Jun-21 16:59N 29°50' W 091°59'0 0.0
2017-Jun-21 16:30N 29°50' W 091°59'0 0.0
2017-Jun-21 15:57N 29°50' W 091°59'0 0.0
2017-Jun-21 15:30N 29°50' W 091°59'0 0.0
2017-Jun-21 15:00N 29°50' W 091°59'0 0.0
2017-Jun-21 14:29N 29°50' W 091°59'0 0.0
2017-Jun-21 13:30N 29°50' W 091°59'0 0.0
2017-Jun-21 12:57N 29°50' W 091°59'0 0.0
2017-Jun-21 12:30N 29°50' W 091°59'0 0.0
2017-Jun-21 10:27N 29°50' W 091°59'0 0.0
2017-Jun-21 09:57N 29°50' W 091°59'0 0.0
2017-Jun-21 09:30N 29°50' W 091°59'0 0.0
2017-Jun-21 08:50N 29°50' W 091°59'0 0.0
2017-Jun-21 08:30N 29°50' W 091°59'0 0.0
2017-Jun-21 08:00N 29°50' W 091°59'0 0.0
2017-Jun-21 07:30N 29°50' W 091°59'0 0.0
2017-Jun-21 07:00N 29°50' W 091°59'0 0.0
2017-Jun-21 06:29N 29°50' W 091°59'0 0.0
2017-Jun-21 06:00N 29°50' W 091°59'0 0.0
2017-Jun-21 05:30N 29°50' W 091°59'0 0.0
2017-Jun-21 04:58N 29°50' W 091°59'0 0.0
2017-Jun-21 04:29N 29°50' W 091°59'0 0.0
2017-Jun-21 04:00N 29°50' W 091°59'0 0.0
2017-Jun-20 23:55N 29°50' W 091°59'0 0.0
2017-Jun-20 23:25N 29°50' W 091°59'0 0.0
2017-Jun-20 22:58N 29°50' W 091°59'0 0.0
2017-Jun-20 22:23N 29°50' W 091°59'0 0.0
2017-Jun-20 21:57N 29°50' W 091°59'0 0.0
2017-Jun-20 20:40N 29°50' W 091°59'0 0.0
2017-Jun-20 20:24N 29°50' W 091°59'0 0.0
2017-Jun-20 20:00N 29°50' W 091°59'0 0.0
2017-Jun-20 19:30N 29°50' W 091°59'0 0.0
2017-Jun-20 19:00N 29°50' W 091°59'0 0.0
2017-Jun-20 18:30N 29°50' W 091°59'0 0.0
2017-Jun-20 10:58N 29°50' W 091°59'0 0.0
2017-Jun-20 10:29N 29°50' W 091°59'0 0.0
2017-Jun-20 09:53N 29°50' W 091°59'0 0.0
2017-Jun-20 09:23N 29°50' W 091°59'0 0.0
2017-Jun-20 08:57N 29°50' W 091°59'0 0.0
2017-Jun-20 08:25N 29°50' W 091°59'0 0.0
2017-Jun-20 08:00N 29°50' W 091°59'0 0.0
2017-Jun-20 07:30N 29°50' W 091°59'0 0.0
2017-Jun-20 07:00N 29°50' W 091°59'0 0.0
2017-Jun-20 06:20N 29°50' W 091°59'0 0.0
2017-Jun-20 04:20N 29°50' W 091°59'0 0.0
2017-Jun-20 03:54N 29°50' W 091°59'0 0.0
2017-Jun-20 03:05N 29°50' W 091°59'0 0.1
2017-Jun-20 02:59N 29°50' W 091°59'0 0.0
2017-Jun-20 02:30N 29°50' W 091°59'0 0.0
2017-Jun-20 02:00N 29°50' W 091°59'0 0.0
2017-Jun-20 01:30N 29°50' W 091°59'0 0.0
2017-Jun-20 01:00N 29°50' W 091°59'0 0.0
2017-Jun-20 00:29N 29°50' W 091°59'0 0.0
2017-Jun-20 00:00N 29°50' W 091°59'0 0.0
2017-Jun-19 23:30N 29°50' W 091°59'55 1.9
2017-Jun-18 18:37N 29°36' W 090°58'2 5.0
2017-Jun-18 18:15N 29°34' W 090°57'1 5.4
2017-Jun-18 18:00N 29°34' W 090°55'  
Track history (hours):
 
Tides and Currents Weather Stations Pressure Air Temp Water Temp Dewpoint Dewpoint Depression Visibility Wind Speed Wind Dir Waves Ship Positions

Harry B. Settoon

Owner: Settoon Towing, LLC, Houma, LA. More information available from US FCC via Universal Licensing System and Coast Guard Vessel Documentation Center.

Last reported at 2017-Jun-28 17:30 UTC. Time now 2017-Jun-28 17:29 UTC.
Position N 29°34' W 090°43'.

Length 16 m.

Type: Tug. MMSI: 367369920.

Date/timePositionNaut miles runAvg speedWind from/ knotsBaromVisibWave heightAir tempDewpointWater temp
2017-Jun-28 17:30N 29°34' W 090°43'2 4.6
2017-Jun-28 17:00N 29°37' W 090°42'2 4.2
2017-Jun-28 16:30N 29°36' W 090°40'0 0.6
2017-Jun-28 16:00N 29°36' W 090°40'0 0.0
2017-Jun-28 15:30N 29°36' W 090°40'0 0.0
2017-Jun-28 15:00N 29°36' W 090°40'0 0.0
2017-Jun-28 14:00N 29°36' W 090°40'2 3.5
2017-Jun-28 13:30N 29°35' W 090°38'3 5.4
2017-Jun-28 13:00N 29°35' W 090°35'3 5.5
2017-Jun-28 12:30N 29°34' W 090°32'3 5.8
2017-Jun-28 12:00N 29°34' W 090°29'  
2017-Jun-23 13:39N 29°33' W 090°27'3 6.9
2017-Jun-23 13:09N 29°34' W 090°31'1 7.0
2017-Jun-23 13:00N 29°34' W 090°32'3 6.8
2017-Jun-23 12:30N 29°35' W 090°36'3 6.7
2017-Jun-23 12:00N 29°36' W 090°39'3 5.9
2017-Jun-23 11:30N 29°36' W 090°43'3 5.5
2017-Jun-23 11:00N 29°34' W 090°44'3 6.5
2017-Jun-23 10:30N 29°32' W 090°47'66 3.7
2017-Jun-22 16:45N 29°50' W 091°59'0 0.0
2017-Jun-22 14:58N 29°50' W 091°59'0 0.0
2017-Jun-22 14:28N 29°50' W 091°59'0 0.0
2017-Jun-22 13:12N 29°50' W 091°59'0 0.0
2017-Jun-22 12:58N 29°50' W 091°59'0 0.0
2017-Jun-22 12:27N 29°50' W 091°59'0 0.0
2017-Jun-22 11:52N 29°50' W 091°59'0 0.0
2017-Jun-22 11:30N 29°50' W 091°59'0 0.0
2017-Jun-22 10:54N 29°50' W 091°59'0 0.0
2017-Jun-22 10:26N 29°50' W 091°59'0 0.0
2017-Jun-22 10:00N 29°50' W 091°59'0 0.0
2017-Jun-22 09:30N 29°50' W 091°59'0 0.0
2017-Jun-22 09:00N 29°50' W 091°59'0 0.0
2017-Jun-22 08:30N 29°50' W 091°59'0 0.0
2017-Jun-22 07:50N 29°50' W 091°59'0 0.0
2017-Jun-22 07:30N 29°50' W 091°59'0 0.0
2017-Jun-22 07:00N 29°50' W 091°59'0 0.0
2017-Jun-22 06:27N 29°50' W 091°59'0 0.0
2017-Jun-22 05:50N 29°50' W 091°59'0 0.0
2017-Jun-22 05:27N 29°50' W 091°59'0 0.0
2017-Jun-22 04:57N 29°50' W 091°59'0 0.0
2017-Jun-21 23:25N 29°50' W 091°59'0 0.0
2017-Jun-21 22:31N 29°50' W 091°59'0 0.0
2017-Jun-21 22:29N 29°50' W 091°59'0 0.0
2017-Jun-21 22:00N 29°50' W 091°59'0 0.0
2017-Jun-21 21:30N 29°50' W 091°59'0 0.0
2017-Jun-21 20:59N 29°50' W 091°59'0 0.0
2017-Jun-21 20:30N 29°50' W 091°59'0 0.0
2017-Jun-21 20:00N 29°50' W 091°59'0 0.0
2017-Jun-21 19:25N 29°50' W 091°59'0 0.0
2017-Jun-21 18:55N 29°50' W 091°59'0 0.0
2017-Jun-21 18:30N 29°50' W 091°59'0 0.0
2017-Jun-21 18:00N 29°50' W 091°59'0 0.0
2017-Jun-21 17:30N 29°50' W 091°59'0 0.0
2017-Jun-21 16:59N 29°50' W 091°59'0 0.0
2017-Jun-21 16:30N 29°50' W 091°59'0 0.0
2017-Jun-21 15:57N 29°50' W 091°59'0 0.0
2017-Jun-21 15:30N 29°50' W 091°59'0 0.0
2017-Jun-21 15:00N 29°50' W 091°59'0 0.0
2017-Jun-21 14:29N 29°50' W 091°59'0 0.0
2017-Jun-21 13:30N 29°50' W 091°59'0 0.0
2017-Jun-21 12:57N 29°50' W 091°59'0 0.0
2017-Jun-21 12:30N 29°50' W 091°59'0 0.0
2017-Jun-21 10:27N 29°50' W 091°59'0 0.0
2017-Jun-21 09:57N 29°50' W 091°59'0 0.0
2017-Jun-21 09:30N 29°50' W 091°59'0 0.0
2017-Jun-21 08:50N 29°50' W 091°59'0 0.0
2017-Jun-21 08:30N 29°50' W 091°59'0 0.0
2017-Jun-21 08:00N 29°50' W 091°59'0 0.0
2017-Jun-21 07:30N 29°50' W 091°59'0 0.0
2017-Jun-21 07:00N 29°50' W 091°59'0 0.0
2017-Jun-21 06:29N 29°50' W 091°59'0 0.0
2017-Jun-21 06:00N 29°50' W 091°59'0 0.0
2017-Jun-21 05:30N 29°50' W 091°59'0 0.0
2017-Jun-21 04:58N 29°50' W 091°59'0 0.0
2017-Jun-21 04:29N 29°50' W 091°59'0 0.0
2017-Jun-21 04:00N 29°50' W 091°59'0 0.0
2017-Jun-20 23:55N 29°50' W 091°59'0 0.0
2017-Jun-20 23:25N 29°50' W 091°59'0 0.0
2017-Jun-20 22:58N 29°50' W 091°59'0 0.0
2017-Jun-20 22:23N 29°50' W 091°59'0 0.0
2017-Jun-20 21:57N 29°50' W 091°59'0 0.0
2017-Jun-20 20:40N 29°50' W 091°59'0 0.0
2017-Jun-20 20:24N 29°50' W 091°59'0 0.0
2017-Jun-20 20:00N 29°50' W 091°59'0 0.0
2017-Jun-20 19:30N 29°50' W 091°59'0 0.0
2017-Jun-20 19:00N 29°50' W 091°59'0 0.0
2017-Jun-20 18:30N 29°50' W 091°59'0 0.0
2017-Jun-20 10:58N 29°50' W 091°59'0 0.0
2017-Jun-20 10:29N 29°50' W 091°59'0 0.0
2017-Jun-20 09:53N 29°50' W 091°59'0 0.0
2017-Jun-20 09:23N 29°50' W 091°59'0 0.0
2017-Jun-20 08:57N 29°50' W 091°59'0 0.0
2017-Jun-20 08:25N 29°50' W 091°59'0 0.0
2017-Jun-20 08:00N 29°50' W 091°59'0 0.0
2017-Jun-20 07:30N 29°50' W 091°59'0 0.0
2017-Jun-20 07:00N 29°50' W 091°59'0 0.0
2017-Jun-20 06:20N 29°50' W 091°59'0 0.0
2017-Jun-20 04:20N 29°50' W 091°59'0 0.0
2017-Jun-20 03:54N 29°50' W 091°59'0 0.0
2017-Jun-20 03:05N 29°50' W 091°59'0 0.1
2017-Jun-20 02:59N 29°50' W 091°59'0 0.0
2017-Jun-20 02:30N 29°50' W 091°59'0 0.0
2017-Jun-20 02:00N 29°50' W 091°59'0 0.0
2017-Jun-20 01:30N 29°50' W 091°59'0 0.0
2017-Jun-20 01:00N 29°50' W 091°59'0 0.0
2017-Jun-20 00:29N 29°50' W 091°59'0 0.0
2017-Jun-20 00:00N 29°50' W 091°59'0 0.0
2017-Jun-19 23:30N 29°50' W 091°59'55 1.9
2017-Jun-18 18:37N 29°36' W 090°58'2 5.0
2017-Jun-18 18:15N 29°34' W 090°57'1 5.4
2017-Jun-18 18:00N 29°34' W 090°55'  

Dump ship's entire track history